sensor_id;sensor_type;location;lat;lon;timestamp;P1;durP1;ratioP1;P2;durP2;ratioP2
44646;SDS011;56315;-33.902;151.160;2022-07-29T00:01:54;4.82;;;1.05;;
44646;SDS011;56315;-33.902;151.160;2022-07-29T00:04:21;3.30;;;1.15;;
44646;SDS011;56315;-33.902;151.160;2022-07-29T00:06:49;2.60;;;1.27;;
44646;SDS011;56315;-33.902;151.160;2022-07-29T00:09:16;3.08;;;1.20;;
44646;SDS011;56315;-33.902;151.160;2022-07-29T00:11:44;2.90;;;0.80;;
44646;SDS011;56315;-33.902;151.160;2022-07-29T00:14:11;2.65;;;0.88;;
44646;SDS011;56315;-33.902;151.160;2022-07-29T00:16:38;2.13;;;0.93;;
44646;SDS011;56315;-33.902;151.160;2022-07-29T00:19:06;2.50;;;0.68;;
44646;SDS011;56315;-33.902;151.160;2022-07-29T00:21:33;2.67;;;1.00;;
44646;SDS011;56315;-33.902;151.160;2022-07-29T00:24:00;2.10;;;0.73;;
44646;SDS011;56315;-33.902;151.160;2022-07-29T00:26:28;3.80;;;0.93;;
44646;SDS011;56315;-33.902;151.160;2022-07-29T00:29:00;3.00;;;0.90;;
44646;SDS011;56315;-33.902;151.160;2022-07-29T00:31:29;4.05;;;1.05;;
44646;SDS011;56315;-33.902;151.160;2022-07-29T00:33:57;2.97;;;0.90;;
44646;SDS011;56315;-33.902;151.160;2022-07-29T00:36:24;3.25;;;0.88;;
44646;SDS011;56315;-33.902;151.160;2022-07-29T00:38:52;3.03;;;1.00;;
44646;SDS011;56315;-33.902;151.160;2022-07-29T00:41:19;1.83;;;0.65;;
44646;SDS011;56315;-33.902;151.160;2022-07-29T00:43:46;3.05;;;0.93;;
44646;SDS011;56315;-33.902;151.160;2022-07-29T00:46:14;2.22;;;0.73;;
44646;SDS011;56315;-33.902;151.160;2022-07-29T00:48:41;4.20;;;1.45;;
44646;SDS011;56315;-33.902;151.160;2022-07-29T00:51:08;1.63;;;0.63;;
44646;SDS011;56315;-33.902;151.160;2022-07-29T00:53:36;1.50;;;0.55;;
44646;SDS011;56315;-33.902;151.160;2022-07-29T00:56:04;2.35;;;0.77;;
44646;SDS011;56315;-33.902;151.160;2022-07-29T00:58:31;2.33;;;0.70;;
44646;SDS011;56315;-33.902;151.160;2022-07-29T01:00:59;2.95;;;0.80;;
44646;SDS011;56315;-33.902;151.160;2022-07-29T01:03:26;1.80;;;1.00;;
44646;SDS011;56315;-33.902;151.160;2022-07-29T01:05:53;2.90;;;0.80;;
44646;SDS011;56315;-33.902;151.160;2022-07-29T01:08:21;1.23;;;0.68;;
44646;SDS011;56315;-33.902;151.160;2022-07-29T01:10:49;2.88;;;0.63;;
44646;SDS011;56315;-33.902;151.160;2022-07-29T01:13:18;1.33;;;0.80;;
44646;SDS011;56315;-33.902;151.160;2022-07-29T01:15:48;6.32;;;0.98;;
44646;SDS011;56315;-33.902;151.160;2022-07-29T01:18:38;2.63;;;0.77;;
44646;SDS011;56315;-33.902;151.160;2022-07-29T01:30:06;2.95;;;0.90;;
44646;SDS011;56315;-33.902;151.160;2022-07-29T01:32:35;1.23;;;0.70;;
44646;SDS011;56315;-33.902;151.160;2022-07-29T01:35:21;1.27;;;0.70;;
44646;SDS011;56315;-33.902;151.160;2022-07-29T01:40:51;3.00;;;0.75;;
44646;SDS011;56315;-33.902;151.160;2022-07-29T01:43:44;4.40;;;1.08;;
44646;SDS011;56315;-33.902;151.160;2022-07-29T01:46:25;3.00;;;0.70;;
44646;SDS011;56315;-33.902;151.160;2022-07-29T01:52:14;6.00;;;0.82;;
44646;SDS011;56315;-33.902;151.160;2022-07-29T01:54:54;1.85;;;1.08;;
44646;SDS011;56315;-33.902;151.160;2022-07-29T01:57:28;2.45;;;0.80;;
44646;SDS011;56315;-33.902;151.160;2022-07-29T01:59:58;3.10;;;0.80;;
44646;SDS011;56315;-33.902;151.160;2022-07-29T02:02:27;4.53;;;0.88;;
44646;SDS011;56315;-33.902;151.160;2022-07-29T02:04:56;6.50;;;1.30;;
44646;SDS011;56315;-33.902;151.160;2022-07-29T02:07:26;4.88;;;0.93;;
44646;SDS011;56315;-33.902;151.160;2022-07-29T02:09:56;1.38;;;0.80;;
44646;SDS011;56315;-33.902;151.160;2022-07-29T02:12:26;3.75;;;0.80;;
44646;SDS011;56315;-33.902;151.160;2022-07-29T02:14:56;2.42;;;0.80;;
44646;SDS011;56315;-33.902;151.160;2022-07-29T02:17:39;3.78;;;0.90;;
44646;SDS011;56315;-33.902;151.160;2022-07-29T02:20:10;4.15;;;1.10;;
44646;SDS011;56315;-33.902;151.160;2022-07-29T02:22:39;7.13;;;1.30;;
44646;SDS011;56315;-33.902;151.160;2022-07-29T02:25:07;3.00;;;0.90;;
44646;SDS011;56315;-33.902;151.160;2022-07-29T02:27:36;4.00;;;0.98;;
44646;SDS011;56315;-33.902;151.160;2022-07-29T02:30:06;3.25;;;0.90;;
44646;SDS011;56315;-33.902;151.160;2022-07-29T02:32:35;3.03;;;1.00;;
44646;SDS011;56315;-33.902;151.160;2022-07-29T02:35:06;5.47;;;1.40;;
44646;SDS011;56315;-33.902;151.160;2022-07-29T02:37:36;3.10;;;0.82;;
44646;SDS011;56315;-33.902;151.160;2022-07-29T02:40:04;1.85;;;1.00;;
44646;SDS011;56315;-33.902;151.160;2022-07-29T02:42:35;3.53;;;0.90;;
44646;SDS011;56315;-33.902;151.160;2022-07-29T02:45:04;2.95;;;1.10;;
44646;SDS011;56315;-33.902;151.160;2022-07-29T02:47:42;4.88;;;0.73;;
44646;SDS011;56315;-33.902;151.160;2022-07-29T02:50:26;3.00;;;0.90;;
44646;SDS011;56315;-33.902;151.160;2022-07-29T02:55:59;3.30;;;0.80;;
44646;SDS011;56315;-33.902;151.160;2022-07-29T02:58:33;2.40;;;0.77;;
44646;SDS011;56315;-33.902;151.160;2022-07-29T03:01:09;4.55;;;0.93;;
44646;SDS011;56315;-33.902;151.160;2022-07-29T03:03:45;1.52;;;0.60;;
44646;SDS011;56315;-33.902;151.160;2022-07-29T03:06:14;5.88;;;0.80;;
44646;SDS011;56315;-33.902;151.160;2022-07-29T03:08:44;2.08;;;1.02;;
44646;SDS011;56315;-33.902;151.160;2022-07-29T03:11:12;2.35;;;0.52;;
44646;SDS011;56315;-33.902;151.160;2022-07-29T03:13:40;5.20;;;1.00;;
44646;SDS011;56315;-33.902;151.160;2022-07-29T03:16:08;4.68;;;1.15;;
44646;SDS011;56315;-33.902;151.160;2022-07-29T03:18:38;5.13;;;1.10;;
44646;SDS011;56315;-33.902;151.160;2022-07-29T03:21:06;1.65;;;0.65;;
44646;SDS011;56315;-33.902;151.160;2022-07-29T03:23:35;5.63;;;1.02;;
44646;SDS011;56315;-33.902;151.160;2022-07-29T03:26:02;3.53;;;1.08;;
44646;SDS011;56315;-33.902;151.160;2022-07-29T03:28:30;4.53;;;1.08;;
44646;SDS011;56315;-33.902;151.160;2022-07-29T03:30:57;2.90;;;0.70;;
44646;SDS011;56315;-33.902;151.160;2022-07-29T03:33:24;6.00;;;0.95;;
44646;SDS011;56315;-33.902;151.160;2022-07-29T03:35:52;5.25;;;0.90;;
44646;SDS011;56315;-33.902;151.160;2022-07-29T03:38:19;4.30;;;1.00;;
44646;SDS011;56315;-33.902;151.160;2022-07-29T03:40:51;6.78;;;0.77;;
44646;SDS011;56315;-33.902;151.160;2022-07-29T03:43:22;3.03;;;1.10;;
44646;SDS011;56315;-33.902;151.160;2022-07-29T03:45:53;3.05;;;0.80;;
44646;SDS011;56315;-33.902;151.160;2022-07-29T03:48:23;3.15;;;1.20;;
44646;SDS011;56315;-33.902;151.160;2022-07-29T03:50:52;4.82;;;1.60;;
44646;SDS011;56315;-33.902;151.160;2022-07-29T03:53:19;5.45;;;2.35;;
44646;SDS011;56315;-33.902;151.160;2022-07-29T03:55:48;4.82;;;1.27;;
44646;SDS011;56315;-33.902;151.160;2022-07-29T03:58:19;2.83;;;0.73;;
44646;SDS011;56315;-33.902;151.160;2022-07-29T04:00:48;4.97;;;1.50;;
44646;SDS011;56315;-33.902;151.160;2022-07-29T04:03:16;6.38;;;1.65;;
44646;SDS011;56315;-33.902;151.160;2022-07-29T04:05:43;11.95;;;2.00;;
44646;SDS011;56315;-33.902;151.160;2022-07-29T04:08:10;3.17;;;0.70;;
44646;SDS011;56315;-33.902;151.160;2022-07-29T04:10:38;2.35;;;0.90;;
44646;SDS011;56315;-33.902;151.160;2022-07-29T04:13:05;2.65;;;1.02;;
44646;SDS011;56315;-33.902;151.160;2022-07-29T04:15:32;1.13;;;0.73;;
44646;SDS011;56315;-33.902;151.160;2022-07-29T04:18:00;7.20;;;1.33;;
44646;SDS011;56315;-33.902;151.160;2022-07-29T04:20:27;2.13;;;1.00;;
44646;SDS011;56315;-33.902;151.160;2022-07-29T04:22:55;4.13;;;0.98;;
44646;SDS011;56315;-33.902;151.160;2022-07-29T04:25:22;7.47;;;1.17;;
44646;SDS011;56315;-33.902;151.160;2022-07-29T04:27:49;3.42;;;1.02;;
44646;SDS011;56315;-33.902;151.160;2022-07-29T04:30:26;3.88;;;1.10;;
44646;SDS011;56315;-33.902;151.160;2022-07-29T04:32:54;4.75;;;1.25;;
44646;SDS011;56315;-33.902;151.160;2022-07-29T04:35:21;2.60;;;1.00;;
44646;SDS011;56315;-33.902;151.160;2022-07-29T04:37:49;2.83;;;1.00;;
44646;SDS011;56315;-33.902;151.160;2022-07-29T04:40:16;3.10;;;0.63;;
44646;SDS011;56315;-33.902;151.160;2022-07-29T04:42:44;4.63;;;1.10;;
44646;SDS011;56315;-33.902;151.160;2022-07-29T04:45:11;3.42;;;1.10;;
44646;SDS011;56315;-33.902;151.160;2022-07-29T04:47:57;4.53;;;1.17;;
44646;SDS011;56315;-33.902;151.160;2022-07-29T04:50:25;12.55;;;1.08;;
44646;SDS011;56315;-33.902;151.160;2022-07-29T04:52:52;4.65;;;0.90;;
44646;SDS011;56315;-33.902;151.160;2022-07-29T04:55:19;5.03;;;1.35;;
44646;SDS011;56315;-33.902;151.160;2022-07-29T04:57:47;3.50;;;0.80;;
44646;SDS011;56315;-33.902;151.160;2022-07-29T05:00:14;5.22;;;0.90;;
44646;SDS011;56315;-33.902;151.160;2022-07-29T05:02:45;8.13;;;1.33;;
44646;SDS011;56315;-33.902;151.160;2022-07-29T05:05:13;4.60;;;1.00;;
44646;SDS011;56315;-33.902;151.160;2022-07-29T05:07:40;6.40;;;1.05;;
44646;SDS011;56315;-33.902;151.160;2022-07-29T05:10:08;2.78;;;0.80;;
44646;SDS011;56315;-33.902;151.160;2022-07-29T05:12:35;5.25;;;1.05;;
44646;SDS011;56315;-33.902;151.160;2022-07-29T05:15:03;4.13;;;1.30;;
44646;SDS011;56315;-33.902;151.160;2022-07-29T05:17:30;5.10;;;0.90;;
44646;SDS011;56315;-33.902;151.160;2022-07-29T05:19:58;5.10;;;0.80;;
44646;SDS011;56315;-33.902;151.160;2022-07-29T05:22:25;5.53;;;0.88;;
44646;SDS011;56315;-33.902;151.160;2022-07-29T05:24:52;2.42;;;0.85;;
44646;SDS011;56315;-33.902;151.160;2022-07-29T05:27:20;19.73;;;1.20;;
44646;SDS011;56315;-33.902;151.160;2022-07-29T05:29:47;5.05;;;1.50;;
44646;SDS011;56315;-33.902;151.160;2022-07-29T05:32:14;4.75;;;1.10;;
44646;SDS011;56315;-33.902;151.160;2022-07-29T05:34:42;4.22;;;1.15;;
44646;SDS011;56315;-33.902;151.160;2022-07-29T05:37:09;5.43;;;1.02;;
44646;SDS011;56315;-33.902;151.160;2022-07-29T05:39:39;4.47;;;1.20;;
44646;SDS011;56315;-33.902;151.160;2022-07-29T05:42:09;3.95;;;1.38;;
44646;SDS011;56315;-33.902;151.160;2022-07-29T05:44:37;6.90;;;1.10;;
44646;SDS011;56315;-33.902;151.160;2022-07-29T05:47:05;5.45;;;1.05;;
44646;SDS011;56315;-33.902;151.160;2022-07-29T05:49:33;4.63;;;1.58;;
44646;SDS011;56315;-33.902;151.160;2022-07-29T05:52:00;6.82;;;1.10;;
44646;SDS011;56315;-33.902;151.160;2022-07-29T05:54:28;3.65;;;0.95;;
44646;SDS011;56315;-33.902;151.160;2022-07-29T05:56:55;2.80;;;0.70;;
44646;SDS011;56315;-33.902;151.160;2022-07-29T05:59:22;9.88;;;1.23;;
44646;SDS011;56315;-33.902;151.160;2022-07-29T06:01:50;3.03;;;1.13;;
44646;SDS011;56315;-33.902;151.160;2022-07-29T06:04:17;4.97;;;1.10;;
44646;SDS011;56315;-33.902;151.160;2022-07-29T06:06:45;4.82;;;0.80;;
44646;SDS011;56315;-33.902;151.160;2022-07-29T06:09:12;5.50;;;0.70;;
44646;SDS011;56315;-33.902;151.160;2022-07-29T06:11:40;3.92;;;0.73;;
44646;SDS011;56315;-33.902;151.160;2022-07-29T06:14:07;3.05;;;1.00;;
44646;SDS011;56315;-33.902;151.160;2022-07-29T06:16:35;7.88;;;1.23;;
44646;SDS011;56315;-33.902;151.160;2022-07-29T06:19:02;3.05;;;0.80;;
44646;SDS011;56315;-33.902;151.160;2022-07-29T06:21:30;3.30;;;0.85;;
44646;SDS011;56315;-33.902;151.160;2022-07-29T06:23:57;5.05;;;1.25;;
44646;SDS011;56315;-33.902;151.160;2022-07-29T06:26:24;5.70;;;1.02;;
44646;SDS011;56315;-33.902;151.160;2022-07-29T06:28:52;4.97;;;0.90;;
44646;SDS011;56315;-33.902;151.160;2022-07-29T06:31:19;2.67;;;1.00;;
44646;SDS011;56315;-33.902;151.160;2022-07-29T06:33:46;3.92;;;1.00;;
44646;SDS011;56315;-33.902;151.160;2022-07-29T06:36:14;5.07;;;0.90;;
44646;SDS011;56315;-33.902;151.160;2022-07-29T06:38:41;10.63;;;1.30;;
44646;SDS011;56315;-33.902;151.160;2022-07-29T06:41:09;8.65;;;1.65;;
44646;SDS011;56315;-33.902;151.160;2022-07-29T06:43:38;3.58;;;0.98;;
44646;SDS011;56315;-33.902;151.160;2022-07-29T06:46:10;2.67;;;1.08;;
44646;SDS011;56315;-33.902;151.160;2022-07-29T06:48:39;6.78;;;1.48;;
44646;SDS011;56315;-33.902;151.160;2022-07-29T06:51:08;5.57;;;1.30;;
44646;SDS011;56315;-33.902;151.160;2022-07-29T06:53:36;8.70;;;1.30;;
44646;SDS011;56315;-33.902;151.160;2022-07-29T06:56:06;3.45;;;1.08;;
44646;SDS011;56315;-33.902;151.160;2022-07-29T06:58:39;3.90;;;1.45;;
44646;SDS011;56315;-33.902;151.160;2022-07-29T07:01:06;4.05;;;1.10;;
44646;SDS011;56315;-33.902;151.160;2022-07-29T07:03:34;6.15;;;1.10;;
44646;SDS011;56315;-33.902;151.160;2022-07-29T07:06:01;6.75;;;1.17;;
44646;SDS011;56315;-33.902;151.160;2022-07-29T07:08:29;6.22;;;1.08;;
44646;SDS011;56315;-33.902;151.160;2022-07-29T07:10:56;3.75;;;1.17;;
44646;SDS011;56315;-33.902;151.160;2022-07-29T07:13:24;3.53;;;1.13;;
44646;SDS011;56315;-33.902;151.160;2022-07-29T07:15:51;3.10;;;1.10;;
44646;SDS011;56315;-33.902;151.160;2022-07-29T07:18:19;7.20;;;2.20;;
44646;SDS011;56315;-33.902;151.160;2022-07-29T07:20:46;4.07;;;1.40;;
44646;SDS011;56315;-33.902;151.160;2022-07-29T07:23:13;4.38;;;1.60;;
44646;SDS011;56315;-33.902;151.160;2022-07-29T07:25:41;7.22;;;1.33;;
44646;SDS011;56315;-33.902;151.160;2022-07-29T07:28:08;6.18;;;1.42;;
44646;SDS011;56315;-33.902;151.160;2022-07-29T07:30:35;10.73;;;2.10;;
44646;SDS011;56315;-33.902;151.160;2022-07-29T07:33:03;7.38;;;1.60;;
44646;SDS011;56315;-33.902;151.160;2022-07-29T07:35:30;7.68;;;1.50;;
44646;SDS011;56315;-33.902;151.160;2022-07-29T07:37:58;5.18;;;1.50;;
44646;SDS011;56315;-33.902;151.160;2022-07-29T07:40:25;4.55;;;1.30;;
44646;SDS011;56315;-33.902;151.160;2022-07-29T07:42:53;4.53;;;1.30;;
44646;SDS011;56315;-33.902;151.160;2022-07-29T07:45:21;4.93;;;1.40;;
44646;SDS011;56315;-33.902;151.160;2022-07-29T07:47:49;2.65;;;1.20;;
44646;SDS011;56315;-33.902;151.160;2022-07-29T07:50:17;4.90;;;1.40;;
44646;SDS011;56315;-33.902;151.160;2022-07-29T07:52:48;7.50;;;2.10;;
44646;SDS011;56315;-33.902;151.160;2022-07-29T07:55:18;5.43;;;1.40;;
44646;SDS011;56315;-33.902;151.160;2022-07-29T07:57:45;6.30;;;1.30;;
44646;SDS011;56315;-33.902;151.160;2022-07-29T08:00:13;8.35;;;1.98;;
44646;SDS011;56315;-33.902;151.160;2022-07-29T08:02:43;5.00;;;1.42;;
44646;SDS011;56315;-33.902;151.160;2022-07-29T08:05:12;6.55;;;1.58;;
44646;SDS011;56315;-33.902;151.160;2022-07-29T08:07:44;5.00;;;1.50;;
44646;SDS011;56315;-33.902;151.160;2022-07-29T08:10:13;6.65;;;2.00;;
44646;SDS011;56315;-33.902;151.160;2022-07-29T08:13:08;10.55;;;1.80;;
44646;SDS011;56315;-33.902;151.160;2022-07-29T08:15:38;4.43;;;1.70;;
44646;SDS011;56315;-33.902;151.160;2022-07-29T08:18:10;6.27;;;1.70;;
44646;SDS011;56315;-33.902;151.160;2022-07-29T08:20:38;3.85;;;1.98;;
44646;SDS011;56315;-33.902;151.160;2022-07-29T08:23:07;6.60;;;1.75;;
44646;SDS011;56315;-33.902;151.160;2022-07-29T08:25:38;12.65;;;4.95;;
44646;SDS011;56315;-33.902;151.160;2022-07-29T08:28:05;5.55;;;2.60;;
44646;SDS011;56315;-33.902;151.160;2022-07-29T08:30:33;8.18;;;4.07;;
44646;SDS011;56315;-33.902;151.160;2022-07-29T08:33:00;6.70;;;2.08;;
44646;SDS011;56315;-33.902;151.160;2022-07-29T08:35:28;6.47;;;3.33;;
44646;SDS011;56315;-33.902;151.160;2022-07-29T08:37:56;8.00;;;3.50;;
44646;SDS011;56315;-33.902;151.160;2022-07-29T08:40:24;8.48;;;2.25;;
44646;SDS011;56315;-33.902;151.160;2022-07-29T08:42:51;5.28;;;2.33;;
44646;SDS011;56315;-33.902;151.160;2022-07-29T08:45:18;5.28;;;1.73;;
44646;SDS011;56315;-33.902;151.160;2022-07-29T08:47:49;5.30;;;1.70;;
44646;SDS011;56315;-33.902;151.160;2022-07-29T08:50:16;6.95;;;2.28;;
44646;SDS011;56315;-33.902;151.160;2022-07-29T08:52:43;6.32;;;2.17;;
44646;SDS011;56315;-33.902;151.160;2022-07-29T08:55:12;6.82;;;2.80;;
44646;SDS011;56315;-33.902;151.160;2022-07-29T08:57:43;7.65;;;3.35;;
44646;SDS011;56315;-33.902;151.160;2022-07-29T09:00:11;11.18;;;4.00;;
44646;SDS011;56315;-33.902;151.160;2022-07-29T09:02:41;8.75;;;3.40;;
44646;SDS011;56315;-33.902;151.160;2022-07-29T09:05:14;7.00;;;3.63;;
44646;SDS011;56315;-33.902;151.160;2022-07-29T09:07:41;11.38;;;3.22;;
44646;SDS011;56315;-33.902;151.160;2022-07-29T09:10:13;7.20;;;2.75;;
44646;SDS011;56315;-33.902;151.160;2022-07-29T09:12:40;8.88;;;3.25;;
44646;SDS011;56315;-33.902;151.160;2022-07-29T09:15:08;13.02;;;3.28;;
44646;SDS011;56315;-33.902;151.160;2022-07-29T09:17:42;7.68;;;3.35;;
44646;SDS011;56315;-33.902;151.160;2022-07-29T09:20:15;12.23;;;2.85;;
44646;SDS011;56315;-33.902;151.160;2022-07-29T09:22:44;10.15;;;3.88;;
44646;SDS011;56315;-33.902;151.160;2022-07-29T09:25:37;12.10;;;4.80;;
44646;SDS011;56315;-33.902;151.160;2022-07-29T09:28:07;10.77;;;3.90;;
44646;SDS011;56315;-33.902;151.160;2022-07-29T09:33:24;9.60;;;2.95;;
44646;SDS011;56315;-33.902;151.160;2022-07-29T09:38:32;4.65;;;2.65;;
44646;SDS011;56315;-33.902;151.160;2022-07-29T09:41:01;5.28;;;2.50;;
44646;SDS011;56315;-33.902;151.160;2022-07-29T09:43:30;10.05;;;2.80;;
44646;SDS011;56315;-33.902;151.160;2022-07-29T09:46:11;8.50;;;2.42;;
44646;SDS011;56315;-33.902;151.160;2022-07-29T09:48:39;5.50;;;2.78;;
44646;SDS011;56315;-33.902;151.160;2022-07-29T09:51:16;6.70;;;3.60;;
44646;SDS011;56315;-33.902;151.160;2022-07-29T09:53:45;8.55;;;3.80;;
44646;SDS011;56315;-33.902;151.160;2022-07-29T09:56:12;9.45;;;3.97;;
44646;SDS011;56315;-33.902;151.160;2022-07-29T09:58:39;9.93;;;3.30;;
44646;SDS011;56315;-33.902;151.160;2022-07-29T10:01:07;8.52;;;3.55;;
44646;SDS011;56315;-33.902;151.160;2022-07-29T10:03:50;9.77;;;3.60;;
44646;SDS011;56315;-33.902;151.160;2022-07-29T10:06:18;8.88;;;3.70;;
44646;SDS011;56315;-33.902;151.160;2022-07-29T10:08:45;6.78;;;3.20;;
44646;SDS011;56315;-33.902;151.160;2022-07-29T10:11:16;7.38;;;3.28;;
44646;SDS011;56315;-33.902;151.160;2022-07-29T10:13:44;9.13;;;4.07;;
44646;SDS011;56315;-33.902;151.160;2022-07-29T10:16:14;9.85;;;4.32;;
44646;SDS011;56315;-33.902;151.160;2022-07-29T10:18:42;10.50;;;5.00;;
44646;SDS011;56315;-33.902;151.160;2022-07-29T10:21:12;8.77;;;4.47;;
44646;SDS011;56315;-33.902;151.160;2022-07-29T10:23:40;8.13;;;5.05;;
44646;SDS011;56315;-33.902;151.160;2022-07-29T10:26:08;8.50;;;4.30;;
44646;SDS011;56315;-33.902;151.160;2022-07-29T10:28:37;10.15;;;4.90;;
44646;SDS011;56315;-33.902;151.160;2022-07-29T10:31:05;11.27;;;5.70;;
44646;SDS011;56315;-33.902;151.160;2022-07-29T10:36:32;11.75;;;5.28;;
44646;SDS011;56315;-33.902;151.160;2022-07-29T10:44:44;14.45;;;6.00;;
44646;SDS011;56315;-33.902;151.160;2022-07-29T10:47:22;10.60;;;5.20;;
44646;SDS011;56315;-33.902;151.160;2022-07-29T10:50:08;11.07;;;5.13;;
44646;SDS011;56315;-33.902;151.160;2022-07-29T10:55:52;10.10;;;5.70;;
44646;SDS011;56315;-33.902;151.160;2022-07-29T10:58:22;8.00;;;5.95;;
44646;SDS011;56315;-33.902;151.160;2022-07-29T11:00:51;11.65;;;6.18;;
44646;SDS011;56315;-33.902;151.160;2022-07-29T11:06:13;13.90;;;6.93;;
44646;SDS011;56315;-33.902;151.160;2022-07-29T11:08:41;11.32;;;6.03;;
44646;SDS011;56315;-33.902;151.160;2022-07-29T11:13:57;11.57;;;6.00;;
44646;SDS011;56315;-33.902;151.160;2022-07-29T11:16:24;7.85;;;5.43;;
44646;SDS011;56315;-33.902;151.160;2022-07-29T11:21:41;8.23;;;4.97;;
44646;SDS011;56315;-33.902;151.160;2022-07-29T11:24:12;9.40;;;5.32;;
44646;SDS011;56315;-33.902;151.160;2022-07-29T11:26:41;11.77;;;4.90;;
44646;SDS011;56315;-33.902;151.160;2022-07-29T11:29:21;9.15;;;4.18;;
44646;SDS011;56315;-33.902;151.160;2022-07-29T11:31:50;8.27;;;4.60;;
44646;SDS011;56315;-33.902;151.160;2022-07-29T11:34:22;7.53;;;4.32;;
44646;SDS011;56315;-33.902;151.160;2022-07-29T11:37:13;7.82;;;4.28;;
44646;SDS011;56315;-33.902;151.160;2022-07-29T11:45:10;9.77;;;4.70;;
44646;SDS011;56315;-33.902;151.160;2022-07-29T11:47:40;9.68;;;4.72;;
44646;SDS011;56315;-33.902;151.160;2022-07-29T11:50:15;11.95;;;4.82;;
44646;SDS011;56315;-33.902;151.160;2022-07-29T11:52:53;7.88;;;4.20;;
44646;SDS011;56315;-33.902;151.160;2022-07-29T11:55:21;8.00;;;4.90;;
44646;SDS011;56315;-33.902;151.160;2022-07-29T11:57:51;8.32;;;4.18;;
44646;SDS011;56315;-33.902;151.160;2022-07-29T12:00:32;7.90;;;3.90;;
44646;SDS011;56315;-33.902;151.160;2022-07-29T12:03:07;8.23;;;4.07;;
44646;SDS011;56315;-33.902;151.160;2022-07-29T12:05:43;7.03;;;3.63;;
44646;SDS011;56315;-33.902;151.160;2022-07-29T12:08:12;12.95;;;4.40;;
44646;SDS011;56315;-33.902;151.160;2022-07-29T12:10:40;7.82;;;3.80;;
44646;SDS011;56315;-33.902;151.160;2022-07-29T12:13:08;8.93;;;3.50;;
44646;SDS011;56315;-33.902;151.160;2022-07-29T12:15:36;9.52;;;2.92;;
44646;SDS011;56315;-33.902;151.160;2022-07-29T12:18:11;9.60;;;3.38;;
44646;SDS011;56315;-33.902;151.160;2022-07-29T12:20:40;9.75;;;3.80;;
44646;SDS011;56315;-33.902;151.160;2022-07-29T12:23:08;7.60;;;2.78;;
44646;SDS011;56315;-33.902;151.160;2022-07-29T12:25:37;8.05;;;3.05;;
44646;SDS011;56315;-33.902;151.160;2022-07-29T12:28:08;7.53;;;2.95;;
44646;SDS011;56315;-33.902;151.160;2022-07-29T12:30:50;6.10;;;1.77;;
44646;SDS011;56315;-33.902;151.160;2022-07-29T12:33:27;5.05;;;2.17;;
44646;SDS011;56315;-33.902;151.160;2022-07-29T12:35:59;6.30;;;1.30;;
44646;SDS011;56315;-33.902;151.160;2022-07-29T12:38:27;8.23;;;1.20;;
44646;SDS011;56315;-33.902;151.160;2022-07-29T12:40:55;6.55;;;1.65;;
44646;SDS011;56315;-33.902;151.160;2022-07-29T12:43:23;3.03;;;1.10;;
44646;SDS011;56315;-33.902;151.160;2022-07-29T12:45:52;4.35;;;1.30;;
44646;SDS011;56315;-33.902;151.160;2022-07-29T12:48:38;4.45;;;1.00;;
44646;SDS011;56315;-33.902;151.160;2022-07-29T12:51:07;2.97;;;1.00;;
44646;SDS011;56315;-33.902;151.160;2022-07-29T12:53:37;4.95;;;1.00;;
44646;SDS011;56315;-33.902;151.160;2022-07-29T12:56:04;7.93;;;1.75;;
44646;SDS011;56315;-33.902;151.160;2022-07-29T12:58:34;5.25;;;1.58;;
44646;SDS011;56315;-33.902;151.160;2022-07-29T13:09:05;8.73;;;2.67;;
44646;SDS011;56315;-33.902;151.160;2022-07-29T13:11:34;5.28;;;2.55;;
44646;SDS011;56315;-33.902;151.160;2022-07-29T13:14:13;8.23;;;3.58;;
44646;SDS011;56315;-33.902;151.160;2022-07-29T13:19:39;8.95;;;3.80;;
44646;SDS011;56315;-33.902;151.160;2022-07-29T13:22:08;7.53;;;4.03;;
44646;SDS011;56315;-33.902;151.160;2022-07-29T13:27:22;11.55;;;4.38;;
44646;SDS011;56315;-33.902;151.160;2022-07-29T13:29:55;8.50;;;3.85;;
44646;SDS011;56315;-33.902;151.160;2022-07-29T13:32:24;9.27;;;4.80;;
44646;SDS011;56315;-33.902;151.160;2022-07-29T13:34:53;9.18;;;4.78;;
44646;SDS011;56315;-33.902;151.160;2022-07-29T13:37:26;7.35;;;4.45;;
44646;SDS011;56315;-33.902;151.160;2022-07-29T13:39:55;7.45;;;4.60;;
44646;SDS011;56315;-33.902;151.160;2022-07-29T13:42:23;8.75;;;4.88;;
44646;SDS011;56315;-33.902;151.160;2022-07-29T13:44:51;12.45;;;4.72;;
44646;SDS011;56315;-33.902;151.160;2022-07-29T13:47:19;11.15;;;4.30;;
44646;SDS011;56315;-33.902;151.160;2022-07-29T13:49:47;9.73;;;5.13;;
44646;SDS011;56315;-33.902;151.160;2022-07-29T13:52:15;8.32;;;4.40;;
44646;SDS011;56315;-33.902;151.160;2022-07-29T13:54:42;11.90;;;4.75;;
44646;SDS011;56315;-33.902;151.160;2022-07-29T13:57:10;8.63;;;5.18;;
44646;SDS011;56315;-33.902;151.160;2022-07-29T13:59:41;9.98;;;4.80;;
44646;SDS011;56315;-33.902;151.160;2022-07-29T14:02:10;8.82;;;5.05;;
44646;SDS011;56315;-33.902;151.160;2022-07-29T14:04:40;8.23;;;4.22;;
44646;SDS011;56315;-33.902;151.160;2022-07-29T14:07:10;7.80;;;4.55;;
44646;SDS011;56315;-33.902;151.160;2022-07-29T14:09:37;10.75;;;4.50;;
44646;SDS011;56315;-33.902;151.160;2022-07-29T14:12:05;8.98;;;4.55;;
44646;SDS011;56315;-33.902;151.160;2022-07-29T14:14:32;9.98;;;4.57;;
44646;SDS011;56315;-33.902;151.160;2022-07-29T14:17:02;7.57;;;3.88;;
44646;SDS011;56315;-33.902;151.160;2022-07-29T14:19:31;6.45;;;3.92;;
44646;SDS011;56315;-33.902;151.160;2022-07-29T14:22:02;9.75;;;5.30;;
44646;SDS011;56315;-33.902;151.160;2022-07-29T14:24:30;9.23;;;4.47;;
44646;SDS011;56315;-33.902;151.160;2022-07-29T14:26:58;12.35;;;4.60;;
44646;SDS011;56315;-33.902;151.160;2022-07-29T14:29:25;10.75;;;5.47;;
44646;SDS011;56315;-33.902;151.160;2022-07-29T14:31:53;9.43;;;4.40;;
44646;SDS011;56315;-33.902;151.160;2022-07-29T14:34:20;9.50;;;4.22;;
44646;SDS011;56315;-33.902;151.160;2022-07-29T14:36:47;12.98;;;3.75;;
44646;SDS011;56315;-33.902;151.160;2022-07-29T14:39:15;8.23;;;3.60;;
44646;SDS011;56315;-33.902;151.160;2022-07-29T14:41:43;8.70;;;4.15;;
44646;SDS011;56315;-33.902;151.160;2022-07-29T14:44:10;7.57;;;3.90;;
44646;SDS011;56315;-33.902;151.160;2022-07-29T14:46:37;11.57;;;4.22;;
44646;SDS011;56315;-33.902;151.160;2022-07-29T14:49:05;7.35;;;3.85;;
44646;SDS011;56315;-33.902;151.160;2022-07-29T14:51:32;8.00;;;3.78;;
44646;SDS011;56315;-33.902;151.160;2022-07-29T14:53:59;9.30;;;3.80;;
44646;SDS011;56315;-33.902;151.160;2022-07-29T14:56:27;10.80;;;4.40;;
44646;SDS011;56315;-33.902;151.160;2022-07-29T14:58:58;11.68;;;3.97;;
44646;SDS011;56315;-33.902;151.160;2022-07-29T15:01:26;11.10;;;3.80;;
44646;SDS011;56315;-33.902;151.160;2022-07-29T15:03:54;9.38;;;4.00;;
44646;SDS011;56315;-33.902;151.160;2022-07-29T15:06:21;7.43;;;3.75;;
44646;SDS011;56315;-33.902;151.160;2022-07-29T15:08:49;9.45;;;4.57;;
44646;SDS011;56315;-33.902;151.160;2022-07-29T15:11:16;10.68;;;4.57;;
44646;SDS011;56315;-33.902;151.160;2022-07-29T15:13:43;7.95;;;3.22;;
44646;SDS011;56315;-33.902;151.160;2022-07-29T15:16:11;6.32;;;3.40;;
44646;SDS011;56315;-33.902;151.160;2022-07-29T15:18:38;7.45;;;3.42;;
44646;SDS011;56315;-33.902;151.160;2022-07-29T15:21:05;9.80;;;3.90;;
44646;SDS011;56315;-33.902;151.160;2022-07-29T15:23:33;6.30;;;3.38;;